Zigoto — PD3114 — position and weather

sailwx.info

Track history (hours):
 
Tides and Currents Weather Stations Pressure Air Temp Water Temp Dewpoint Dewpoint Depression Visibility Wind Speed Wind Dir Waves Ship Positions

Zigoto

Last reported at 2018-Jun-15 16:45 UTC. Time now 2018-Jun-24 09:17 UTC.
Position N 39°01' W 028°17'.
Warning: this ship's position is 8 days out of date.

Length 12 m.

Type: Sailing vessel. MMSI: 244070876.

Date/timePositionNaut miles runAvg speedWind from/ knotsBaromVisibWave heightAir tempDewpointWater temp
2018-Jun-15 16:45N 39°01' W 028°17'1 5.3
2018-Jun-15 16:30N 39°00' W 028°18'3 5.7
2018-Jun-15 15:55N 38°57' W 028°20'3 5.8
2018-Jun-15 15:29N 38°56' W 028°23'3 5.5
2018-Jun-15 14:56N 38°53' W 028°25'3 5.6
2018-Jun-15 14:27N 38°50' W 028°26'2 5.4
2018-Jun-15 14:00N 38°48' W 028°27'4 5.8
2018-Jun-15 13:21N 38°45' W 028°29'3 6.1
2018-Jun-15 12:56N 38°42' W 028°30'3 6.6
2018-Jun-15 12:30N 38°40' W 028°31'2 4.6
2018-Jun-15 11:58N 38°37' W 028°32'2 3.6
2018-Jun-15 11:26N 38°36' W 028°34'2 3.5
2018-Jun-15 11:00N 38°34' W 028°34'2 4.9
2018-Jun-15 10:30N 38°32' W 028°36'1 2.2
2018-Jun-15 10:00N 38°32' W 028°38'  
Track history (hours):
 
Tides and Currents Weather Stations Pressure Air Temp Water Temp Dewpoint Dewpoint Depression Visibility Wind Speed Wind Dir Waves Ship Positions

Zigoto

Last reported at 2018-Jun-15 16:45 UTC. Time now 2018-Jun-24 09:17 UTC.
Position N 39°01' W 028°17'.
Warning: this ship's position is 8 days out of date.

Length 12 m.

Type: Sailing vessel. MMSI: 244070876.

Date/timePositionNaut miles runAvg speedWind from/ knotsBaromVisibWave heightAir tempDewpointWater temp
2018-Jun-15 16:45N 39°01' W 028°17'1 5.3
2018-Jun-15 16:30N 39°00' W 028°18'3 5.7
2018-Jun-15 15:55N 38°57' W 028°20'3 5.8
2018-Jun-15 15:29N 38°56' W 028°23'3 5.5
2018-Jun-15 14:56N 38°53' W 028°25'3 5.6
2018-Jun-15 14:27N 38°50' W 028°26'2 5.4
2018-Jun-15 14:00N 38°48' W 028°27'4 5.8
2018-Jun-15 13:21N 38°45' W 028°29'3 6.1
2018-Jun-15 12:56N 38°42' W 028°30'3 6.6
2018-Jun-15 12:30N 38°40' W 028°31'2 4.6
2018-Jun-15 11:58N 38°37' W 028°32'2 3.6
2018-Jun-15 11:26N 38°36' W 028°34'2 3.5
2018-Jun-15 11:00N 38°34' W 028°34'2 4.9
2018-Jun-15 10:30N 38°32' W 028°36'1 2.2
2018-Jun-15 10:00N 38°32' W 028°38'  

Dump ship's entire track history